Terminal Aerodrome Forecast
Issued by NWS Shreveport, LA

Home | Current Version | Previous Version | Text Only | Print | Product List | Glossary On
Versions: 1 2 3 4 5 6 7 8 9 10 11 12 13 14 15
000
FTUS44 KSHV 302300 CCA
TAFTXK
TAF COR
KTXK 302328Z 0100/0124 07007KT P6SM VCSH FEW070
     FM010200 10003KT P6SM FEW070
      TEMPO 0110/0114 5SM BR BKN015
     FM011400 16006KT P6SM SCT015
     FM011600 18008KT P6SM BKN030=

USA.gov is the U.S. government's official web portal to all federal, state and local government web resources and services.